createdAt,value
2023-01-22T00:00:14.847Z,19.17
2023-01-22T00:01:14.782Z,19.17
2023-01-22T00:02:14.847Z,19.18
2023-01-22T00:03:14.751Z,19.21
2023-01-22T00:04:14.745Z,19.11
2023-01-22T00:05:14.729Z,19.10
2023-01-22T00:06:14.734Z,19.14
2023-01-22T00:07:14.707Z,19.20
2023-01-22T00:08:14.694Z,19.18
2023-01-22T00:09:14.682Z,19.18
2023-01-22T00:10:14.692Z,19.18
2023-01-22T00:11:14.665Z,19.15
2023-01-22T00:12:14.655Z,19.17
2023-01-22T00:13:14.636Z,19.13
2023-01-22T00:14:14.685Z,19.18
2023-01-22T00:15:14.613Z,19.17
2023-01-22T00:16:14.743Z,19.14
2023-01-22T00:17:14.589Z,19.14
2023-01-22T00:18:14.622Z,19.18
2023-01-22T00:19:14.567Z,19.11
2023-01-22T00:20:14.562Z,19.17
2023-01-22T00:21:14.576Z,19.18
2023-01-22T00:22:14.543Z,19.13
2023-01-22T00:23:14.551Z,19.08
2023-01-22T00:24:14.523Z,19.17
2023-01-22T00:25:14.504Z,19.20
2023-01-22T00:26:14.493Z,19.14
2023-01-22T00:27:14.493Z,19.13
2023-01-22T00:28:14.468Z,19.18
2023-01-22T00:29:14.456Z,19.08
2023-01-22T00:30:14.472Z,19.08
2023-01-22T00:31:14.528Z,19.13
2023-01-22T00:32:14.591Z,19.15
2023-01-22T00:33:14.414Z,19.14
2023-01-22T00:34:14.423Z,19.14
2023-01-22T00:35:14.389Z,19.02
2023-01-22T00:36:14.409Z,19.11
2023-01-22T00:37:14.363Z,19.14
2023-01-22T00:38:14.352Z,19.13
2023-01-22T00:39:14.360Z,19.14
2023-01-22T00:40:14.340Z,19.11
2023-01-22T00:41:14.321Z,19.15
2023-01-22T00:42:14.310Z,19.11
2023-01-22T00:43:14.298Z,19.13
2023-01-22T00:44:14.287Z,19.14
2023-01-22T00:45:14.276Z,19.17
2023-01-22T00:46:14.339Z,19.02
2023-01-22T00:47:14.258Z,19.15
2023-01-22T00:48:14.241Z,19.13
2023-01-22T00:49:14.230Z,19.08
2023-01-22T00:50:14.235Z,19.06
2023-01-22T00:51:14.366Z,19.14
2023-01-22T00:52:14.192Z,19.15
2023-01-22T00:53:14.184Z,19.20
2023-01-22T00:54:14.187Z,19.10
2023-01-22T00:55:14.159Z,19.15
2023-01-22T00:56:14.149Z,19.14
2023-01-22T00:57:14.136Z,19.15
2023-01-22T00:58:14.123Z,19.08
2023-01-22T00:59:14.121Z,19.14
2023-01-22T01:00:14.104Z,19.15
2023-01-22T01:01:14.093Z,19.15
2023-01-22T01:02:14.132Z,19.14
2023-01-22T01:03:14.065Z,19.14
2023-01-22T01:04:14.060Z,19.08
2023-01-22T01:05:14.039Z,19.17
2023-01-22T01:06:14.040Z,19.17
2023-01-22T01:07:14.020Z,19.18
2023-01-22T01:08:14.012Z,19.13
2023-01-22T01:09:13.997Z,19.17
2023-01-22T01:10:13.988Z,19.11
2023-01-22T01:11:13.972Z,19.06
2023-01-22T01:12:13.978Z,19.08
2023-01-22T01:13:14.065Z,19.06
2023-01-22T01:14:13.946Z,19.08
2023-01-22T01:15:13.932Z,19.08
2023-01-22T01:16:14.004Z,19.10
2023-01-22T01:17:13.904Z,19.18
2023-01-22T01:18:13.925Z,19.17
2023-01-22T01:19:13.883Z,19.14
2023-01-22T01:20:13.890Z,19.17
2023-01-22T01:21:13.874Z,19.18
2023-01-22T01:22:13.852Z,19.08
2023-01-22T01:23:13.843Z,19.11
2023-01-22T01:24:13.916Z,19.17
2023-01-22T01:25:13.814Z,19.13
2023-01-22T01:26:13.802Z,19.15
2023-01-22T01:27:13.790Z,19.10
2023-01-22T01:28:13.787Z,19.11
2023-01-22T01:29:13.891Z,19.13
2023-01-22T01:30:13.775Z,19.10
2023-01-22T01:31:13.822Z,19.11
2023-01-22T01:32:13.736Z,19.10
2023-01-22T01:33:13.721Z,19.06
2023-01-22T01:34:13.713Z,19.08
2023-01-22T01:35:13.699Z,19.06
2023-01-22T01:36:13.719Z,19.08
2023-01-22T01:37:13.685Z,19.05
2023-01-22T01:38:13.678Z,19.18
2023-01-22T01:39:13.652Z,19.13
2023-01-22T01:40:13.650Z,19.20
2023-01-22T01:41:13.636Z,19.11
2023-01-22T01:42:13.641Z,19.13
2023-01-22T01:43:13.607Z,19.10
2023-01-22T01:44:13.644Z,19.05
2023-01-22T01:45:13.706Z,19.13
2023-01-22T01:46:13.644Z,19.10
2023-01-22T01:47:13.563Z,19.08
2023-01-22T01:48:13.558Z,19.14
2023-01-22T01:49:13.542Z,19.05
2023-01-22T01:50:13.530Z,19.13
2023-01-22T01:51:13.625Z,19.06
2023-01-22T01:52:13.506Z,19.08
2023-01-22T01:53:13.510Z,19.08
2023-01-22T01:54:13.498Z,19.15
2023-01-22T01:55:13.472Z,19.10
2023-01-22T01:56:13.462Z,19.06
2023-01-22T01:57:13.450Z,18.98
2023-01-22T01:58:13.441Z,18.98
2023-01-22T01:59:13.426Z,19.11
2023-01-22T02:00:13.442Z,19.10
2023-01-22T02:01:13.515Z,19.02
2023-01-22T02:02:13.441Z,19.10
2023-01-22T02:03:13.381Z,19.11
2023-01-22T02:04:13.370Z,19.05
2023-01-22T02:05:13.357Z,19.10
2023-01-22T02:06:13.355Z,19.08
2023-01-22T02:07:13.338Z,19.08
2023-01-22T02:08:13.322Z,19.05
2023-01-22T02:09:13.312Z,19.17
2023-01-22T02:10:13.300Z,19.05
2023-01-22T02:11:13.295Z,18.98
2023-01-22T02:12:13.296Z,19.08
2023-01-22T02:13:13.268Z,19.08
2023-01-22T02:14:13.253Z,19.10
2023-01-22T02:15:13.242Z,19.08
2023-01-22T02:16:13.310Z,19.13
2023-01-22T02:17:13.356Z,19.13
2023-01-22T02:18:13.222Z,19.08
2023-01-22T02:19:13.210Z,19.14
2023-01-22T02:20:13.193Z,19.10
2023-01-22T02:21:13.173Z,19.10
2023-01-22T02:22:13.168Z,19.08
2023-01-22T02:23:13.151Z,19.08
2023-01-22T02:24:13.176Z,19.05
2023-01-22T02:25:13.130Z,19.06
2023-01-22T02:26:13.117Z,19.06
2023-01-22T02:27:13.111Z,19.10
2023-01-22T02:28:13.093Z,19.08
2023-01-22T02:29:13.093Z,19.13
2023-01-22T02:30:13.102Z,19.05
2023-01-22T02:31:13.187Z,19.05
2023-01-22T02:32:13.074Z,19.08
2023-01-22T02:33:13.156Z,19.05
2023-01-22T02:34:13.026Z,19.02
2023-01-22T02:35:13.017Z,19.06
2023-01-22T02:36:13.028Z,19.02
2023-01-22T02:37:12.997Z,19.05
2023-01-22T02:38:12.983Z,19.11
2023-01-22T02:39:12.969Z,19.08
2023-01-22T02:40:12.961Z,19.08
2023-01-22T02:41:12.947Z,19.06
2023-01-22T02:42:13.426Z,19.10
2023-01-22T02:43:12.922Z,19.08
2023-01-22T02:44:12.911Z,19.08
2023-01-22T02:45:12.908Z,19.05
2023-01-22T02:46:12.888Z,19.06
2023-01-22T02:47:12.876Z,19.05
2023-01-22T02:48:12.875Z,19.06
2023-01-22T02:49:12.974Z,19.05
2023-01-22T02:50:12.847Z,19.11
2023-01-22T02:51:12.900Z,18.97
2023-01-22T02:52:12.820Z,19.08
2023-01-22T02:53:12.808Z,19.13
2023-01-22T02:54:12.810Z,19.08
2023-01-22T02:55:12.785Z,19.01
2023-01-22T02:56:12.779Z,18.99
2023-01-22T02:57:12.769Z,19.06
2023-01-22T02:58:12.753Z,19.13
2023-01-22T02:59:12.739Z,19.05
2023-01-22T03:00:12.733Z,19.11
2023-01-22T03:01:12.779Z,19.08
2023-01-22T03:02:12.750Z,19.05
2023-01-22T03:03:12.696Z,19.01
2023-01-22T03:04:12.682Z,19.02
2023-01-22T03:05:12.799Z,19.02
2023-01-22T03:06:12.691Z,19.06
2023-01-22T03:07:12.646Z,19.10
2023-01-22T03:08:12.636Z,19.11
2023-01-22T03:09:12.629Z,19.06
2023-01-22T03:10:12.616Z,19.06
2023-01-22T03:11:12.602Z,19.08
2023-01-22T03:12:12.612Z,18.99
2023-01-22T03:13:12.587Z,19.08
2023-01-22T03:14:12.567Z,19.05
2023-01-22T03:15:12.556Z,19.06
2023-01-22T03:16:12.594Z,19.10
2023-01-22T03:17:12.538Z,19.01
2023-01-22T03:18:12.527Z,19.08
2023-01-22T03:19:12.514Z,19.08
2023-01-22T03:20:12.500Z,19.11
2023-01-22T03:21:12.607Z,19.06
2023-01-22T03:22:12.481Z,19.02
2023-01-22T03:23:12.469Z,19.05
2023-01-22T03:24:12.468Z,19.10
2023-01-22T03:25:12.442Z,19.05
2023-01-22T03:26:12.439Z,19.02
2023-01-22T03:27:12.420Z,19.08
2023-01-22T03:28:12.406Z,19.10
2023-01-22T03:29:12.396Z,19.06
2023-01-22T03:30:12.414Z,19.06
2023-01-22T03:31:12.392Z,19.10
2023-01-22T03:32:12.400Z,19.05
2023-01-22T03:33:12.350Z,19.05
2023-01-22T03:34:12.346Z,19.11
2023-01-22T03:35:12.335Z,19.01
2023-01-22T03:36:12.350Z,19.11
2023-01-22T03:37:12.464Z,19.06
2023-01-22T03:38:12.297Z,19.08
2023-01-22T03:39:12.285Z,19.14
2023-01-22T03:40:12.271Z,19.11
2023-01-22T03:41:12.260Z,19.11
2023-01-22T03:42:12.254Z,19.10
2023-01-22T03:43:12.241Z,19.05
2023-01-22T03:44:12.223Z,19.02
2023-01-22T03:45:12.221Z,18.99
2023-01-22T03:46:12.220Z,19.10
2023-01-22T03:47:12.197Z,19.08
2023-01-22T03:48:12.220Z,19.01
2023-01-22T03:49:12.168Z,19.06
2023-01-22T03:50:12.159Z,19.06
2023-01-22T03:51:12.192Z,19.06
2023-01-22T03:52:12.141Z,19.06
2023-01-22T03:53:12.248Z,19.02
2023-01-22T03:54:12.125Z,19.02
2023-01-22T03:55:12.109Z,19.13
2023-01-22T03:56:12.091Z,19.02
2023-01-22T03:57:12.076Z,19.11
2023-01-22T03:58:12.096Z,18.98
2023-01-22T03:59:12.057Z,19.14
2023-01-22T04:00:12.058Z,19.02
2023-01-22T04:01:12.083Z,19.06
2023-01-22T04:02:12.135Z,19.02
2023-01-22T04:03:12.008Z,19.01
2023-01-22T04:04:11.998Z,19.01
2023-01-22T04:05:11.987Z,19.02
2023-01-22T04:06:12.024Z,18.95
2023-01-22T04:07:11.963Z,19.06
2023-01-22T04:08:11.951Z,19.08
2023-01-22T04:09:12.059Z,19.02
2023-01-22T04:10:11.929Z,19.06
2023-01-22T04:11:11.918Z,19.01
2023-01-22T04:12:11.911Z,19.02
2023-01-22T04:13:11.896Z,19.05
2023-01-22T04:14:11.881Z,19.01
2023-01-22T04:15:11.880Z,19.02
2023-01-22T04:16:11.898Z,19.02
2023-01-22T04:17:11.849Z,18.99
2023-01-22T04:18:11.860Z,19.02
2023-01-22T04:19:11.829Z,18.98
2023-01-22T04:20:11.820Z,19.08
2023-01-22T04:21:11.808Z,19.02
2023-01-22T04:22:11.803Z,18.99
2023-01-22T04:23:11.781Z,19.11
2023-01-22T04:24:11.783Z,19.02
2023-01-22T04:25:11.873Z,18.98
2023-01-22T04:26:11.746Z,19.05
2023-01-22T04:27:11.739Z,18.95
2023-01-22T04:28:11.721Z,19.01
2023-01-22T04:29:11.714Z,19.13
2023-01-22T04:30:11.717Z,18.95
2023-01-22T04:31:11.846Z,19.06
2023-01-22T04:32:11.677Z,19.02
2023-01-22T04:33:11.665Z,19.02
2023-01-22T04:34:11.656Z,19.02
2023-01-22T04:35:11.656Z,18.98
2023-01-22T04:36:11.649Z,19.06
2023-01-22T04:37:11.623Z,19.08
2023-01-22T04:38:11.610Z,18.99
2023-01-22T04:39:11.596Z,18.95
2023-01-22T04:40:11.587Z,19.02
2023-01-22T04:41:11.694Z,18.95
2023-01-22T04:42:11.593Z,18.98
2023-01-22T04:43:11.551Z,18.97
2023-01-22T04:44:11.540Z,19.05
2023-01-22T04:45:11.530Z,19.10
2023-01-22T04:46:11.602Z,19.02
2023-01-22T04:47:11.505Z,19.05
2023-01-22T04:48:11.514Z,19.08
2023-01-22T04:49:11.483Z,19.06
2023-01-22T04:50:11.472Z,18.95
2023-01-22T04:51:11.541Z,19.05
2023-01-22T04:52:11.451Z,19.05
2023-01-22T04:53:11.437Z,19.01
2023-01-22T04:54:11.463Z,19.02
2023-01-22T04:55:11.414Z,19.11
2023-01-22T04:56:11.407Z,19.05
2023-01-22T04:57:11.506Z,19.05
2023-01-22T04:58:11.379Z,19.02
2023-01-22T04:59:11.369Z,19.08
2023-01-22T05:00:11.363Z,19.02
2023-01-22T05:01:11.359Z,19.06
2023-01-22T05:02:11.367Z,18.99
2023-01-22T05:03:11.322Z,19.02
2023-01-22T05:04:11.316Z,19.05
2023-01-22T05:05:11.309Z,18.95
2023-01-22T05:06:11.303Z,18.95
2023-01-22T05:07:11.278Z,19.06
2023-01-22T05:08:11.272Z,19.06
2023-01-22T05:09:11.258Z,18.97
2023-01-22T05:10:11.246Z,19.02
2023-01-22T05:11:11.236Z,18.99
2023-01-22T05:12:11.225Z,18.98
2023-01-22T05:13:11.371Z,18.99
2023-01-22T05:14:11.198Z,18.98
2023-01-22T05:15:23.003Z,19.08
2023-01-22T05:16:12.215Z,19.02
2023-01-22T05:17:11.172Z,19.06
2023-01-22T05:18:11.184Z,19.01
2023-01-22T05:19:11.139Z,18.98
2023-01-22T05:20:11.126Z,19.10
2023-01-22T05:21:11.117Z,18.94
2023-01-22T05:22:11.105Z,19.05
2023-01-22T05:23:11.095Z,19.05
2023-01-22T05:24:11.101Z,19.06
2023-01-22T05:25:11.077Z,19.01
2023-01-22T05:26:11.076Z,19.02
2023-01-22T05:27:11.051Z,19.05
2023-01-22T05:28:11.036Z,19.08
2023-01-22T05:29:11.137Z,19.05
2023-01-22T05:30:11.034Z,18.99
2023-01-22T05:31:11.164Z,19.06
2023-01-22T05:32:10.994Z,19.02
2023-01-22T05:33:11.516Z,18.98
2023-01-22T05:34:10.967Z,19.01
2023-01-22T05:35:10.955Z,19.01
2023-01-22T05:36:10.951Z,19.06
2023-01-22T05:37:10.935Z,19.02
2023-01-22T05:38:10.937Z,18.99
2023-01-22T05:39:10.914Z,19.01
2023-01-22T05:40:10.899Z,18.95
2023-01-22T05:41:10.888Z,19.02
2023-01-22T05:42:10.881Z,19.08
2023-01-22T05:43:10.864Z,19.05
2023-01-22T05:44:10.860Z,18.98
2023-01-22T05:45:16.827Z,19.02
2023-01-22T05:46:11.985Z,18.98
2023-01-22T05:47:10.820Z,19.02
2023-01-22T05:48:10.814Z,18.98
2023-01-22T05:49:10.798Z,19.02
2023-01-22T05:50:10.790Z,19.01
2023-01-22T05:51:10.829Z,19.01
2023-01-22T05:52:11.042Z,18.97
2023-01-22T05:53:10.754Z,18.97
2023-01-22T05:54:10.772Z,19.05
2023-01-22T05:55:10.742Z,18.97
2023-01-22T05:56:10.718Z,19.01
2023-01-22T05:57:10.716Z,18.98
2023-01-22T05:58:10.696Z,18.97
2023-01-22T05:59:10.695Z,19.02
2023-01-22T06:00:10.696Z,19.01
2023-01-22T06:01:10.662Z,19.02
2023-01-22T06:02:10.815Z,19.08
2023-01-22T06:03:10.636Z,19.02
2023-01-22T06:04:10.641Z,19.01
2023-01-22T06:05:10.623Z,19.06
2023-01-22T06:06:10.632Z,19.01
2023-01-22T06:07:10.607Z,19.01
2023-01-22T06:08:10.578Z,18.97
2023-01-22T06:09:10.568Z,19.01
2023-01-22T06:10:10.565Z,18.97
2023-01-22T06:11:10.545Z,18.99
2023-01-22T06:12:10.565Z,18.98
2023-01-22T06:13:10.526Z,18.97
2023-01-22T06:14:10.517Z,19.05
2023-01-22T06:15:10.500Z,19.08
2023-01-22T06:16:10.716Z,19.02
2023-01-22T06:17:10.488Z,18.97
2023-01-22T06:18:10.587Z,19.01
2023-01-22T06:19:10.457Z,18.97
2023-01-22T06:20:10.444Z,18.99
2023-01-22T06:21:10.434Z,19.08
2023-01-22T06:22:10.423Z,19.02
2023-01-22T06:23:10.426Z,18.99
2023-01-22T06:24:10.402Z,18.94
2023-01-22T06:25:10.386Z,19.05
2023-01-22T06:26:10.376Z,18.92
2023-01-22T06:27:10.366Z,19.05
2023-01-22T06:28:10.427Z,18.97
2023-01-22T06:29:10.348Z,19.02
2023-01-22T06:30:10.369Z,19.02
2023-01-22T06:31:10.443Z,19.05
2023-01-22T06:32:10.309Z,19.01
2023-01-22T06:33:10.298Z,19.01
2023-01-22T06:34:10.403Z,19.08
2023-01-22T06:35:10.271Z,18.98
2023-01-22T06:36:10.274Z,19.05
2023-01-22T06:37:10.253Z,19.08
2023-01-22T06:38:10.238Z,18.99
2023-01-22T06:39:10.225Z,19.01
2023-01-22T06:40:10.213Z,19.02
2023-01-22T06:41:10.203Z,19.02
2023-01-22T06:42:10.196Z,19.01
2023-01-22T06:43:10.812Z,19.08
2023-01-22T06:44:10.169Z,19.08
2023-01-22T06:45:10.163Z,19.01
2023-01-22T06:46:10.172Z,19.06
2023-01-22T06:47:10.133Z,19.02
2023-01-22T06:48:10.159Z,19.02
2023-01-22T06:49:10.123Z,19.01
2023-01-22T06:50:10.212Z,19.08
2023-01-22T06:51:10.099Z,18.99
2023-01-22T06:52:10.077Z,18.95
2023-01-22T06:53:10.074Z,18.98
2023-01-22T06:54:10.060Z,19.01
2023-01-22T06:55:10.042Z,19.06
2023-01-22T06:56:10.035Z,19.05
2023-01-22T06:57:10.022Z,18.99
2023-01-22T06:58:10.023Z,19.01
2023-01-22T06:59:09.997Z,18.94
2023-01-22T07:00:09.991Z,19.01
2023-01-22T07:01:09.973Z,19.08
2023-01-22T07:02:09.966Z,19.02
2023-01-22T07:03:09.960Z,19.02
2023-01-22T07:04:09.940Z,19.05
2023-01-22T07:05:09.929Z,18.98
2023-01-22T07:06:10.075Z,18.98
2023-01-22T07:07:09.905Z,19.08
2023-01-22T07:08:09.906Z,19.02
2023-01-22T07:09:09.883Z,18.98
2023-01-22T07:10:09.871Z,18.95
2023-01-22T07:11:09.864Z,19.01
2023-01-22T07:12:09.857Z,19.02
2023-01-22T07:13:09.841Z,18.98
2023-01-22T07:14:09.827Z,19.08
2023-01-22T07:15:09.819Z,18.92
2023-01-22T07:16:09.870Z,19.05
2023-01-22T07:17:09.817Z,18.99
2023-01-22T07:18:09.795Z,18.92
2023-01-22T07:19:09.774Z,18.95
2023-01-22T07:20:09.785Z,18.97
2023-01-22T07:21:09.748Z,18.98
2023-01-22T07:22:09.851Z,19.06
2023-01-22T07:23:09.726Z,18.98
2023-01-22T07:24:09.721Z,18.99
2023-01-22T07:25:09.701Z,18.97
2023-01-22T07:26:09.691Z,19.02
2023-01-22T07:27:09.677Z,18.99
2023-01-22T07:28:09.677Z,19.01
2023-01-22T07:29:09.656Z,19.01
2023-01-22T07:30:09.658Z,19.01
2023-01-22T07:31:09.769Z,18.97
2023-01-22T07:32:09.631Z,18.99
2023-01-22T07:33:09.611Z,18.99
2023-01-22T07:34:09.598Z,18.99
2023-01-22T07:35:09.592Z,19.01
2023-01-22T07:36:09.579Z,18.98
2023-01-22T07:37:09.563Z,19.08
2023-01-22T07:38:09.687Z,18.98
2023-01-22T07:39:09.537Z,18.98
2023-01-22T07:40:09.531Z,19.06
2023-01-22T07:41:24.875Z,19.01
2023-01-22T07:42:10.536Z,19.01
2023-01-22T07:43:09.500Z,19.02
2023-01-22T07:44:09.499Z,19.06
2023-01-22T07:45:09.475Z,19.05
2023-01-22T07:46:09.521Z,19.01
2023-01-22T07:47:09.454Z,18.91
2023-01-22T07:48:09.458Z,19.01
2023-01-22T07:49:09.432Z,18.98
2023-01-22T07:50:09.419Z,18.98
2023-01-22T07:51:09.446Z,19.08
2023-01-22T07:52:09.394Z,19.05
2023-01-22T07:53:09.386Z,19.01
2023-01-22T07:54:09.490Z,18.94
2023-01-22T07:55:09.358Z,19.01
2023-01-22T07:56:09.352Z,18.99
2023-01-22T07:57:09.335Z,18.98
2023-01-22T07:58:09.328Z,18.98
2023-01-22T07:59:09.313Z,19.01
2023-01-22T08:00:09.309Z,19.02
2023-01-22T08:01:09.343Z,19.06
2023-01-22T08:02:09.327Z,18.99
2023-01-22T08:03:09.267Z,19.01
2023-01-22T08:04:09.256Z,18.99
2023-01-22T08:05:09.247Z,19.06
2023-01-22T08:06:09.256Z,19.05
2023-01-22T08:07:09.221Z,18.95
2023-01-22T08:08:09.209Z,18.91
2023-01-22T08:09:09.199Z,18.98
2023-01-22T08:10:09.307Z,18.99
2023-01-22T08:11:09.178Z,19.06
2023-01-22T08:12:09.169Z,19.02
2023-01-22T08:13:09.152Z,19.01
2023-01-22T08:14:09.181Z,18.98
2023-01-22T08:15:09.134Z,19.02
2023-01-22T08:16:09.202Z,19.02
2023-01-22T08:17:09.106Z,19.01
2023-01-22T08:18:09.111Z,19.06
2023-01-22T08:19:09.085Z,18.97
2023-01-22T08:20:09.101Z,18.97
2023-01-22T08:21:09.066Z,19.02
2023-01-22T08:22:09.056Z,18.97
2023-01-22T08:23:09.042Z,19.10
2023-01-22T08:24:09.035Z,18.92
2023-01-22T08:25:09.014Z,19.08
2023-01-22T08:26:09.116Z,19.02
2023-01-22T08:27:09.005Z,19.01
2023-01-22T08:28:08.984Z,19.01
2023-01-22T08:29:08.994Z,18.97
2023-01-22T08:30:08.966Z,19.01
2023-01-22T08:31:16.430Z,19.08
2023-01-22T08:32:10.096Z,18.99
2023-01-22T08:33:08.926Z,18.97
2023-01-22T08:34:08.912Z,19.01
2023-01-22T08:35:08.903Z,19.01
2023-01-22T08:36:08.895Z,18.99
2023-01-22T08:37:08.883Z,18.95
2023-01-22T08:38:08.868Z,19.01
2023-01-22T08:39:08.856Z,18.98
2023-01-22T08:40:08.843Z,19.05
2023-01-22T08:41:08.834Z,19.13
2023-01-22T08:42:08.941Z,18.99
2023-01-22T08:43:08.808Z,19.01
2023-01-22T08:44:08.800Z,18.98
2023-01-22T08:45:08.787Z,18.94
2023-01-22T08:46:08.826Z,19.05
2023-01-22T08:47:08.764Z,18.98
2023-01-22T08:48:08.782Z,18.99
2023-01-22T08:49:08.741Z,19.02
2023-01-22T08:50:08.734Z,19.08
2023-01-22T08:51:08.773Z,19.01
2023-01-22T08:52:08.708Z,19.02
2023-01-22T08:53:08.705Z,18.97
2023-01-22T08:54:08.698Z,18.98
2023-01-22T08:55:08.674Z,18.98
2023-01-22T08:56:08.666Z,19.01
2023-01-22T08:57:08.651Z,19.02
2023-01-22T08:58:08.749Z,19.06
2023-01-22T08:59:08.633Z,19.05
2023-01-22T09:00:08.729Z,19.02
2023-01-22T09:01:08.699Z,19.02
2023-01-22T09:02:08.625Z,18.97
2023-01-22T09:03:08.582Z,19.08
2023-01-22T09:04:08.569Z,18.94
2023-01-22T09:05:08.569Z,19.01
2023-01-22T09:06:08.552Z,19.02
2023-01-22T09:07:08.535Z,19.02
2023-01-22T09:08:08.526Z,19.08
2023-01-22T09:09:08.515Z,18.99
2023-01-22T09:10:08.506Z,19.01
2023-01-22T09:11:08.496Z,19.08
2023-01-22T09:12:08.509Z,19.02
2023-01-22T09:13:08.467Z,18.98
2023-01-22T09:14:08.580Z,18.99
2023-01-22T09:15:08.445Z,19.01
2023-01-22T09:16:08.523Z,18.98
2023-01-22T09:17:08.422Z,19.01
2023-01-22T09:18:08.440Z,18.98
2023-01-22T09:19:08.403Z,19.01
2023-01-22T09:20:08.385Z,19.02
2023-01-22T09:21:08.399Z,19.01
2023-01-22T09:22:08.362Z,19.06
2023-01-22T09:23:08.366Z,18.94
2023-01-22T09:24:08.363Z,19.05
2023-01-22T09:25:08.354Z,19.08
2023-01-22T09:26:08.320Z,19.05
2023-01-22T09:27:08.311Z,19.01
2023-01-22T09:28:08.300Z,19.05
2023-01-22T09:29:08.296Z,19.06
2023-01-22T09:30:08.406Z,18.97
2023-01-22T09:31:08.299Z,19.01
2023-01-22T09:32:08.252Z,18.99
2023-01-22T09:33:08.238Z,19.01
2023-01-22T09:34:08.231Z,19.02
2023-01-22T09:35:08.215Z,19.05
2023-01-22T09:36:08.212Z,19.02
2023-01-22T09:37:08.192Z,18.98
2023-01-22T09:38:08.180Z,19.11
2023-01-22T09:39:08.169Z,19.02
2023-01-22T09:40:08.162Z,19.08
2023-01-22T09:41:08.146Z,19.02
2023-01-22T09:42:08.141Z,18.98
2023-01-22T09:43:08.125Z,19.06
2023-01-22T09:44:08.113Z,19.05
2023-01-22T09:45:08.101Z,18.99
2023-01-22T09:46:08.282Z,19.06
2023-01-22T09:47:08.078Z,19.02
2023-01-22T09:48:08.072Z,19.02
2023-01-22T09:49:08.057Z,19.08
2023-01-22T09:50:08.044Z,18.98
2023-01-22T09:51:08.059Z,18.99
2023-01-22T09:52:08.019Z,19.05
2023-01-22T09:53:08.011Z,19.05
2023-01-22T09:54:08.026Z,19.05
2023-01-22T09:55:07.986Z,18.98
2023-01-22T09:56:07.989Z,19.01
2023-01-22T09:57:07.963Z,18.99
2023-01-22T09:58:07.956Z,19.02
2023-01-22T09:59:07.945Z,18.95
2023-01-22T10:00:07.954Z,19.02
2023-01-22T10:01:07.940Z,18.98
2023-01-22T10:02:08.060Z,19.02
2023-01-22T10:03:07.893Z,19.02
2023-01-22T10:04:07.889Z,19.05
2023-01-22T10:05:07.873Z,19.08
2023-01-22T10:06:07.865Z,19.10
2023-01-22T10:07:07.848Z,19.06
2023-01-22T10:08:07.840Z,19.02
2023-01-22T10:09:07.871Z,19.13
2023-01-22T10:10:07.834Z,19.01
2023-01-22T10:11:07.802Z,19.01
2023-01-22T10:12:07.798Z,19.14
2023-01-22T10:13:07.788Z,19.11
2023-01-22T10:14:07.772Z,19.08
2023-01-22T10:15:07.758Z,19.01
2023-01-22T10:16:07.756Z,19.10
2023-01-22T10:17:07.741Z,19.08
2023-01-22T10:18:07.871Z,19.10
2023-01-22T10:19:07.713Z,19.11
2023-01-22T10:20:07.706Z,19.10
2023-01-22T10:21:07.692Z,18.99
2023-01-22T10:22:07.678Z,19.06
2023-01-22T10:23:07.667Z,19.06
2023-01-22T10:24:07.661Z,19.08
2023-01-22T10:25:07.646Z,19.08
2023-01-22T10:26:07.632Z,19.08
2023-01-22T10:27:07.622Z,19.05
2023-01-22T10:28:07.609Z,19.10
2023-01-22T10:29:07.606Z,19.08
2023-01-22T10:30:07.616Z,19.08
2023-01-22T10:31:07.718Z,19.10
2023-01-22T10:32:07.567Z,19.08
2023-01-22T10:33:07.561Z,19.06
2023-01-22T10:34:07.654Z,19.08
2023-01-22T10:35:07.551Z,19.08
2023-01-22T10:36:07.529Z,19.10
2023-01-22T10:37:07.510Z,19.08
2023-01-22T10:38:07.502Z,19.05
2023-01-22T10:39:07.483Z,19.10
2023-01-22T10:40:07.474Z,19.15
2023-01-22T10:41:07.462Z,19.15
2023-01-22T10:42:07.456Z,19.05
2023-01-22T10:43:07.451Z,19.13
2023-01-22T10:44:07.429Z,19.20
2023-01-22T10:45:07.413Z,19.17
2023-01-22T10:46:07.553Z,19.13
2023-01-22T10:47:07.401Z,19.18
2023-01-22T10:48:07.397Z,19.11
2023-01-22T10:49:07.372Z,19.14
2023-01-22T10:50:07.478Z,19.17
2023-01-22T10:51:07.389Z,19.21
2023-01-22T10:52:07.339Z,19.10
2023-01-22T10:53:07.323Z,19.20
2023-01-22T10:54:07.321Z,19.20
2023-01-22T10:55:07.309Z,19.17
2023-01-22T10:56:07.292Z,19.18
2023-01-22T10:57:07.285Z,19.18
2023-01-22T10:58:07.268Z,19.18
2023-01-22T10:59:07.262Z,19.18
2023-01-22T11:00:07.251Z,19.17
2023-01-22T11:01:07.318Z,19.20
2023-01-22T11:02:07.236Z,19.21
2023-01-22T11:03:07.209Z,19.21
2023-01-22T11:04:07.200Z,19.20
2023-01-22T11:05:07.188Z,19.18
2023-01-22T11:06:07.302Z,19.28
2023-01-22T11:07:07.162Z,19.18
2023-01-22T11:08:07.154Z,19.21
2023-01-22T11:09:07.144Z,19.17
2023-01-22T11:10:07.130Z,19.21
2023-01-22T11:11:07.120Z,19.18
2023-01-22T11:12:07.114Z,19.21
2023-01-22T11:13:07.096Z,19.18
2023-01-22T11:14:07.085Z,19.20
2023-01-22T11:15:07.081Z,19.21
2023-01-22T11:16:07.114Z,19.18
2023-01-22T11:17:07.052Z,19.21
2023-01-22T11:18:07.102Z,19.25
2023-01-22T11:19:07.034Z,19.15
2023-01-22T11:20:07.018Z,19.17
2023-01-22T11:21:07.005Z,19.28
2023-01-22T11:22:07.115Z,19.17
2023-01-22T11:23:06.983Z,19.17
2023-01-22T11:24:07.837Z,19.21
2023-01-22T11:25:08.199Z,19.21
2023-01-22T11:26:06.948Z,19.18
2023-01-22T11:27:06.937Z,19.15
2023-01-22T11:28:06.926Z,19.24
2023-01-22T11:29:06.927Z,19.21
2023-01-22T11:30:06.912Z,19.21
2023-01-22T11:31:07.074Z,19.17
2023-01-22T11:32:06.879Z,19.17
2023-01-22T11:33:06.869Z,19.18
2023-01-22T11:34:06.859Z,19.21
2023-01-22T11:35:06.844Z,19.21
2023-01-22T11:36:09.579Z,19.15
2023-01-22T11:37:06.827Z,19.18
2023-01-22T11:38:06.936Z,19.25
2023-01-22T11:39:06.808Z,19.18
2023-01-22T11:40:06.793Z,19.25
2023-01-22T11:41:06.793Z,19.15
2023-01-22T11:42:06.801Z,19.28
2023-01-22T11:43:08.958Z,19.23
2023-01-22T11:44:06.751Z,19.20
2023-01-22T11:45:06.734Z,19.31
2023-01-22T11:46:06.741Z,19.20
2023-01-22T11:47:06.722Z,19.25
2023-01-22T11:48:06.722Z,19.18
2023-01-22T11:49:06.692Z,19.18
2023-01-22T11:50:06.683Z,19.18
2023-01-22T11:51:06.754Z,19.17
2023-01-22T11:52:06.653Z,19.17
2023-01-22T11:53:06.651Z,19.28
2023-01-22T11:54:06.758Z,19.18
2023-01-22T11:55:06.617Z,19.28
2023-01-22T11:56:06.603Z,19.21
2023-01-22T11:57:06.598Z,19.21
2023-01-22T11:58:06.583Z,19.24
2023-01-22T11:59:06.576Z,19.18
2023-01-22T12:00:06.566Z,19.18
2023-01-22T12:01:06.556Z,19.24
2023-01-22T12:02:06.538Z,19.31
2023-01-22T12:03:06.527Z,19.18
2023-01-22T12:04:06.548Z,19.24
2023-01-22T12:05:06.506Z,19.28
2023-01-22T12:06:06.507Z,19.29
2023-01-22T12:07:06.484Z,19.23
2023-01-22T12:08:06.467Z,19.17
2023-01-22T12:09:06.457Z,19.25
2023-01-22T12:10:06.562Z,19.24
2023-01-22T12:11:06.441Z,19.17
2023-01-22T12:12:06.447Z,19.17
2023-01-22T12:13:06.424Z,19.21
2023-01-22T12:14:06.399Z,19.24
2023-01-22T12:15:06.391Z,19.31
2023-01-22T12:16:06.416Z,19.29
2023-01-22T12:17:06.367Z,19.28
2023-01-22T12:18:06.361Z,19.28
2023-01-22T12:19:06.345Z,19.23
2023-01-22T12:20:06.333Z,19.21
2023-01-22T12:21:06.323Z,19.17
2023-01-22T12:22:06.314Z,19.18
2023-01-22T12:23:06.304Z,19.20
2023-01-22T12:24:06.294Z,19.28
2023-01-22T12:25:06.273Z,19.18
2023-01-22T12:26:06.376Z,19.25
2023-01-22T12:27:06.255Z,19.17
2023-01-22T12:28:06.238Z,19.20
2023-01-22T12:29:06.242Z,19.18
2023-01-22T12:30:06.238Z,19.14
2023-01-22T12:31:06.359Z,19.21
2023-01-22T12:32:06.195Z,19.15
2023-01-22T12:33:06.183Z,19.25
2023-01-22T12:34:06.170Z,19.18
2023-01-22T12:35:06.170Z,19.20
2023-01-22T12:36:06.153Z,19.15
2023-01-22T12:37:06.143Z,19.15
2023-01-22T12:38:06.133Z,19.20
2023-01-22T12:39:06.115Z,19.15
2023-01-22T12:40:06.103Z,19.20
2023-01-22T12:41:06.098Z,19.15
2023-01-22T12:42:06.228Z,19.17
2023-01-22T12:43:06.068Z,19.24
2023-01-22T12:44:06.061Z,19.17
2023-01-22T12:45:06.047Z,19.14
2023-01-22T12:46:06.034Z,19.23
2023-01-22T12:47:06.025Z,19.13
2023-01-22T12:48:06.025Z,19.14
2023-01-22T12:49:06.015Z,19.17
2023-01-22T12:50:05.988Z,19.14
2023-01-22T12:51:06.001Z,19.21
2023-01-22T12:52:05.968Z,19.14